sensor_id;sensor_type;location;lat;lon;timestamp;temperature;humidity
6824;DHT22;58633;49.470;11.004;2022-07-29T00:02:50;23.90;41.60
6824;DHT22;58633;49.470;11.004;2022-07-29T00:05:15;23.90;41.70
6824;DHT22;58633;49.470;11.004;2022-07-29T00:07:41;23.80;42.10
6824;DHT22;58633;49.470;11.004;2022-07-29T00:10:06;23.80;41.50
6824;DHT22;58633;49.470;11.004;2022-07-29T00:12:32;23.80;41.40
6824;DHT22;58633;49.470;11.004;2022-07-29T00:14:57;23.80;41.40
6824;DHT22;58633;49.470;11.004;2022-07-29T00:17:24;23.90;41.40
6824;DHT22;58633;49.470;11.004;2022-07-29T00:19:50;23.80;41.50
6824;DHT22;58633;49.470;11.004;2022-07-29T00:22:15;23.60;41.30
6824;DHT22;58633;49.470;11.004;2022-07-29T00:24:42;23.80;41.40
6824;DHT22;58633;49.470;11.004;2022-07-29T00:27:07;23.50;41.60
6824;DHT22;58633;49.470;11.004;2022-07-29T00:29:33;23.90;41.50
6824;DHT22;58633;49.470;11.004;2022-07-29T00:31:58;23.80;41.40
6824;DHT22;58633;49.470;11.004;2022-07-29T00:34:24;23.90;41.40
6824;DHT22;58633;49.470;11.004;2022-07-29T00:37:08;23.90;41.90
6824;DHT22;58633;49.470;11.004;2022-07-29T00:39:34;23.70;41.30
6824;DHT22;58633;49.470;11.004;2022-07-29T00:42:02;23.80;41.40
6824;DHT22;58633;49.470;11.004;2022-07-29T00:44:28;23.80;41.40
6824;DHT22;58633;49.470;11.004;2022-07-29T00:46:53;23.70;41.40
6824;DHT22;58633;49.470;11.004;2022-07-29T00:49:19;23.70;41.40
6824;DHT22;58633;49.470;11.004;2022-07-29T00:51:45;23.60;41.30
6824;DHT22;58633;49.470;11.004;2022-07-29T00:54:10;23.70;41.50
6824;DHT22;58633;49.470;11.004;2022-07-29T00:56:37;23.70;41.50
6824;DHT22;58633;49.470;11.004;2022-07-29T01:01:28;23.60;41.50
6824;DHT22;58633;49.470;11.004;2022-07-29T01:03:54;23.30;41.30
6824;DHT22;58633;49.470;11.004;2022-07-29T01:06:20;23.50;41.40
6824;DHT22;58633;49.470;11.004;2022-07-29T01:08:47;23.70;42.10
6824;DHT22;58633;49.470;11.004;2022-07-29T01:11:14;23.60;42.10
6824;DHT22;58633;49.470;11.004;2022-07-29T01:13:41;23.60;41.40
6824;DHT22;58633;49.470;11.004;2022-07-29T01:16:14;23.70;41.50
6824;DHT22;58633;49.470;11.004;2022-07-29T01:18:46;23.60;41.40
6824;DHT22;58633;49.470;11.004;2022-07-29T01:24:15;23.50;41.50
6824;DHT22;58633;49.470;11.004;2022-07-29T01:27:22;23.60;41.70
6824;DHT22;58633;49.470;11.004;2022-07-29T01:29:57;23.40;41.80
6824;DHT22;58633;49.470;11.004;2022-07-29T01:32:28;23.50;41.90
6824;DHT22;58633;49.470;11.004;2022-07-29T01:35:07;23.60;42.00
6824;DHT22;58633;49.470;11.004;2022-07-29T01:40:25;23.60;42.80
6824;DHT22;58633;49.470;11.004;2022-07-29T01:42:55;23.30;42.30
6824;DHT22;58633;49.470;11.004;2022-07-29T01:48:03;23.40;42.60
6824;DHT22;58633;49.470;11.004;2022-07-29T01:50:40;23.40;42.60
6824;DHT22;58633;49.470;11.004;2022-07-29T01:53:09;23.40;42.70
6824;DHT22;58633;49.470;11.004;2022-07-29T01:55:38;23.30;42.60
6824;DHT22;58633;49.470;11.004;2022-07-29T01:58:05;23.30;42.60
6824;DHT22;58633;49.470;11.004;2022-07-29T02:00:34;23.20;42.60
6824;DHT22;58633;49.470;11.004;2022-07-29T02:03:07;23.30;43.20
6824;DHT22;58633;49.470;11.004;2022-07-29T02:05:35;23.20;42.80
6824;DHT22;58633;49.470;11.004;2022-07-29T02:08:02;23.20;43.30
6824;DHT22;58633;49.470;11.004;2022-07-29T02:10:30;23.30;43.20
6824;DHT22;58633;49.470;11.004;2022-07-29T02:12:57;23.20;43.70
6824;DHT22;58633;49.470;11.004;2022-07-29T02:15:25;23.40;43.50
6824;DHT22;58633;49.470;11.004;2022-07-29T02:17:58;23.20;43.80
6824;DHT22;58633;49.470;11.004;2022-07-29T02:20:25;23.00;43.20
6824;DHT22;58633;49.470;11.004;2022-07-29T02:22:52;23.10;43.20
6824;DHT22;58633;49.470;11.004;2022-07-29T02:25:18;23.00;43.10
6824;DHT22;58633;49.470;11.004;2022-07-29T02:27:47;23.00;43.60
6824;DHT22;58633;49.470;11.004;2022-07-29T02:30:14;23.10;43.60
6824;DHT22;58633;49.470;11.004;2022-07-29T02:32:41;23.00;43.60
6824;DHT22;58633;49.470;11.004;2022-07-29T02:35:09;23.00;43.30
6824;DHT22;58633;49.470;11.004;2022-07-29T02:37:36;23.00;43.40
6824;DHT22;58633;49.470;11.004;2022-07-29T02:40:02;22.80;43.20
6824;DHT22;58633;49.470;11.004;2022-07-29T02:44:55;22.80;43.50
6824;DHT22;58633;49.470;11.004;2022-07-29T02:47:27;22.70;43.60
6824;DHT22;58633;49.470;11.004;2022-07-29T02:50:01;22.70;43.70
6824;DHT22;58633;49.470;11.004;2022-07-29T02:52:43;22.70;43.80
6824;DHT22;58633;49.470;11.004;2022-07-29T02:57:47;22.60;44.30
6824;DHT22;58633;49.470;11.004;2022-07-29T03:00:15;22.60;44.00
6824;DHT22;58633;49.470;11.004;2022-07-29T03:02:45;22.60;44.00
6824;DHT22;58633;49.470;11.004;2022-07-29T03:05:20;22.70;44.10
6824;DHT22;58633;49.470;11.004;2022-07-29T03:07:49;22.50;43.90
6824;DHT22;58633;49.470;11.004;2022-07-29T03:10:16;22.80;44.10
6824;DHT22;58633;49.470;11.004;2022-07-29T03:12:43;22.50;43.90
6824;DHT22;58633;49.470;11.004;2022-07-29T03:15:09;22.40;43.90
6824;DHT22;58633;49.470;11.004;2022-07-29T03:17:35;22.50;43.90
6824;DHT22;58633;49.470;11.004;2022-07-29T03:20:02;22.40;44.00
6824;DHT22;58633;49.470;11.004;2022-07-29T03:22:28;22.40;44.00
6824;DHT22;58633;49.470;11.004;2022-07-29T03:24:53;22.30;44.70
6824;DHT22;58633;49.470;11.004;2022-07-29T03:27:19;22.40;44.20
6824;DHT22;58633;49.470;11.004;2022-07-29T03:29:45;22.20;44.20
6824;DHT22;58633;49.470;11.004;2022-07-29T03:34:37;22.30;44.30
6824;DHT22;58633;49.470;11.004;2022-07-29T03:37:04;22.30;44.40
6824;DHT22;58633;49.470;11.004;2022-07-29T03:39:33;22.30;44.40
6824;DHT22;58633;49.470;11.004;2022-07-29T03:42:01;22.20;44.30
6824;DHT22;58633;49.470;11.004;2022-07-29T03:44:27;22.20;44.30
6824;DHT22;58633;49.470;11.004;2022-07-29T03:46:54;22.20;44.50
6824;DHT22;58633;49.470;11.004;2022-07-29T03:49:21;22.20;44.70
6824;DHT22;58633;49.470;11.004;2022-07-29T03:51:48;22.20;44.80
6824;DHT22;58633;49.470;11.004;2022-07-29T03:56:42;22.20;44.90
6824;DHT22;58633;49.470;11.004;2022-07-29T03:59:11;22.00;44.80
6824;DHT22;58633;49.470;11.004;2022-07-29T04:01:38;22.00;44.80
6824;DHT22;58633;49.470;11.004;2022-07-29T04:04:05;22.00;44.80
6824;DHT22;58633;49.470;11.004;2022-07-29T04:06:41;22.10;44.70
6824;DHT22;58633;49.470;11.004;2022-07-29T04:09:07;22.00;45.20
6824;DHT22;58633;49.470;11.004;2022-07-29T04:11:33;21.80;44.50
6824;DHT22;58633;49.470;11.004;2022-07-29T04:13:59;22.00;44.80
6824;DHT22;58633;49.470;11.004;2022-07-29T04:16:24;21.90;44.80
6824;DHT22;58633;49.470;11.004;2022-07-29T04:18:50;22.00;44.90
6824;DHT22;58633;49.470;11.004;2022-07-29T04:21:15;22.10;44.90
6824;DHT22;58633;49.470;11.004;2022-07-29T04:23:41;21.90;44.70
6824;DHT22;58633;49.470;11.004;2022-07-29T04:26:07;21.90;44.70
6824;DHT22;58633;49.470;11.004;2022-07-29T04:28:36;22.00;44.90
6824;DHT22;58633;49.470;11.004;2022-07-29T04:33:27;21.90;44.80
6824;DHT22;58633;49.470;11.004;2022-07-29T04:35:53;21.90;44.90
6824;DHT22;58633;49.470;11.004;2022-07-29T04:38:18;21.90;45.00
6824;DHT22;58633;49.470;11.004;2022-07-29T04:40:44;22.00;45.10
6824;DHT22;58633;49.470;11.004;2022-07-29T04:43:09;22.00;45.50
6824;DHT22;58633;49.470;11.004;2022-07-29T04:48:01;21.90;45.00
6824;DHT22;58633;49.470;11.004;2022-07-29T04:50:26;21.80;45.20
6824;DHT22;58633;49.470;11.004;2022-07-29T04:52:52;21.90;46.00
6824;DHT22;58633;49.470;11.004;2022-07-29T04:55:17;21.90;46.30
6824;DHT22;58633;49.470;11.004;2022-07-29T04:57:43;21.70;46.20
6824;DHT22;58633;49.470;11.004;2022-07-29T05:00:09;21.90;46.90
6824;DHT22;58633;49.470;11.004;2022-07-29T05:02:34;22.20;46.20
6824;DHT22;58633;49.470;11.004;2022-07-29T05:05:00;22.20;46.00
6824;DHT22;58633;49.470;11.004;2022-07-29T05:07:26;22.10;45.60
6824;DHT22;58633;49.470;11.004;2022-07-29T05:09:51;22.30;46.40
6824;DHT22;58633;49.470;11.004;2022-07-29T05:12:18;22.10;45.70
6824;DHT22;58633;49.470;11.004;2022-07-29T05:14:43;22.20;45.80
6824;DHT22;58633;49.470;11.004;2022-07-29T05:17:09;22.20;46.00
6824;DHT22;58633;49.470;11.004;2022-07-29T05:19:35;22.20;46.00
6824;DHT22;58633;49.470;11.004;2022-07-29T05:22:01;22.20;45.90
6824;DHT22;58633;49.470;11.004;2022-07-29T05:24:26;22.30;46.10
6824;DHT22;58633;49.470;11.004;2022-07-29T05:26:52;22.20;45.90
6824;DHT22;58633;49.470;11.004;2022-07-29T05:29:18;22.20;45.80
6824;DHT22;58633;49.470;11.004;2022-07-29T05:31:43;22.20;45.80
6824;DHT22;58633;49.470;11.004;2022-07-29T05:34:09;22.30;45.80
6824;DHT22;58633;49.470;11.004;2022-07-29T05:36:34;22.20;45.60
6824;DHT22;58633;49.470;11.004;2022-07-29T05:39:00;22.30;45.60
6824;DHT22;58633;49.470;11.004;2022-07-29T05:41:25;22.30;45.60
6824;DHT22;58633;49.470;11.004;2022-07-29T05:43:51;22.10;45.50
6824;DHT22;58633;49.470;11.004;2022-07-29T05:46:17;22.40;45.80
6824;DHT22;58633;49.470;11.004;2022-07-29T05:48:42;22.30;45.70
6824;DHT22;58633;49.470;11.004;2022-07-29T05:51:08;22.40;45.70
6824;DHT22;58633;49.470;11.004;2022-07-29T05:53:33;22.40;45.80
6824;DHT22;58633;49.470;11.004;2022-07-29T05:56:03;22.50;45.80
6824;DHT22;58633;49.470;11.004;2022-07-29T05:58:28;22.40;45.60
6824;DHT22;58633;49.470;11.004;2022-07-29T06:00:54;22.50;46.20
6824;DHT22;58633;49.470;11.004;2022-07-29T06:03:24;22.50;45.50
6824;DHT22;58633;49.470;11.004;2022-07-29T06:05:50;22.50;45.50
6824;DHT22;58633;49.470;11.004;2022-07-29T06:08:15;22.20;45.40
6824;DHT22;58633;49.470;11.004;2022-07-29T06:10:41;22.30;45.50
6824;DHT22;58633;49.470;11.004;2022-07-29T06:13:06;22.50;45.70
6824;DHT22;58633;49.470;11.004;2022-07-29T06:15:32;22.60;46.30
6824;DHT22;58633;49.470;11.004;2022-07-29T06:17:58;22.40;45.60
6824;DHT22;58633;49.470;11.004;2022-07-29T06:20:24;22.80;46.00
6824;DHT22;58633;49.470;11.004;2022-07-29T06:22:49;22.90;46.00
6824;DHT22;58633;49.470;11.004;2022-07-29T06:25:15;22.60;45.70
6824;DHT22;58633;49.470;11.004;2022-07-29T06:27:41;22.70;45.80
6824;DHT22;58633;49.470;11.004;2022-07-29T06:30:07;22.90;46.10
6824;DHT22;58633;49.470;11.004;2022-07-29T06:32:33;22.90;46.10
6824;DHT22;58633;49.470;11.004;2022-07-29T06:35:00;22.90;46.00
6824;DHT22;58633;49.470;11.004;2022-07-29T06:37:26;23.10;46.10
6824;DHT22;58633;49.470;11.004;2022-07-29T06:39:51;23.10;46.00
6824;DHT22;58633;49.470;11.004;2022-07-29T06:42:37;23.10;46.00
6824;DHT22;58633;49.470;11.004;2022-07-29T06:45:03;23.30;46.10
6824;DHT22;58633;49.470;11.004;2022-07-29T06:47:28;23.50;46.30
6824;DHT22;58633;49.470;11.004;2022-07-29T06:49:54;23.50;46.20
6824;DHT22;58633;49.470;11.004;2022-07-29T06:52:19;23.60;46.20
6824;DHT22;58633;49.470;11.004;2022-07-29T06:54:45;23.60;46.20
6824;DHT22;58633;49.470;11.004;2022-07-29T06:57:13;23.60;46.20
6824;DHT22;58633;49.470;11.004;2022-07-29T06:59:39;23.60;46.40
6824;DHT22;58633;49.470;11.004;2022-07-29T07:02:04;23.60;46.50
6824;DHT22;58633;49.470;11.004;2022-07-29T07:04:30;23.60;46.50
6824;DHT22;58633;49.470;11.004;2022-07-29T07:06:55;23.70;46.70
6824;DHT22;58633;49.470;11.004;2022-07-29T07:09:21;23.70;46.70
6824;DHT22;58633;49.470;11.004;2022-07-29T07:11:46;23.80;47.40
6824;DHT22;58633;49.470;11.004;2022-07-29T07:14:12;23.80;47.10
6824;DHT22;58633;49.470;11.004;2022-07-29T07:16:37;23.50;46.90
6824;DHT22;58633;49.470;11.004;2022-07-29T07:19:03;23.90;47.20
6824;DHT22;58633;49.470;11.004;2022-07-29T07:21:29;24.10;47.60
6824;DHT22;58633;49.470;11.004;2022-07-29T07:23:54;23.90;47.30
6824;DHT22;58633;49.470;11.004;2022-07-29T07:26:20;24.00;47.90
6824;DHT22;58633;49.470;11.004;2022-07-29T07:28:45;24.10;47.10
6824;DHT22;58633;49.470;11.004;2022-07-29T07:31:11;24.20;47.20
6824;DHT22;58633;49.470;11.004;2022-07-29T07:36:03;24.30;47.20
6824;DHT22;58633;49.470;11.004;2022-07-29T07:38:28;24.40;47.20
6824;DHT22;58633;49.470;11.004;2022-07-29T07:40:54;24.40;47.10
6824;DHT22;58633;49.470;11.004;2022-07-29T07:43:20;24.50;47.10
6824;DHT22;58633;49.470;11.004;2022-07-29T07:45:45;24.70;47.30
6824;DHT22;58633;49.470;11.004;2022-07-29T07:48:11;24.80;47.20
6824;DHT22;58633;49.470;11.004;2022-07-29T07:50:36;24.70;47.00
6824;DHT22;58633;49.470;11.004;2022-07-29T07:53:02;24.70;46.80
6824;DHT22;58633;49.470;11.004;2022-07-29T07:55:28;24.70;46.70
6824;DHT22;58633;49.470;11.004;2022-07-29T07:57:54;24.90;47.40
6824;DHT22;58633;49.470;11.004;2022-07-29T08:00:20;24.90;46.60
6824;DHT22;58633;49.470;11.004;2022-07-29T08:02:46;25.00;46.60
6824;DHT22;58633;49.470;11.004;2022-07-29T08:05:12;25.00;47.10
6824;DHT22;58633;49.470;11.004;2022-07-29T08:07:45;25.00;47.20
6824;DHT22;58633;49.470;11.004;2022-07-29T08:10:12;25.10;47.20
6824;DHT22;58633;49.470;11.004;2022-07-29T08:12:37;25.10;46.80
6824;DHT22;58633;49.470;11.004;2022-07-29T08:15:03;25.10;46.70
6824;DHT22;58633;49.470;11.004;2022-07-29T08:17:29;25.10;46.70
6824;DHT22;58633;49.470;11.004;2022-07-29T08:19:56;25.20;46.80
6824;DHT22;58633;49.470;11.004;2022-07-29T08:22:21;25.10;46.70
6824;DHT22;58633;49.470;11.004;2022-07-29T08:24:47;25.10;46.60
6824;DHT22;58633;49.470;11.004;2022-07-29T08:27:18;25.30;46.60
6824;DHT22;58633;49.470;11.004;2022-07-29T08:29:44;25.60;46.70
6824;DHT22;58633;49.470;11.004;2022-07-29T08:32:10;25.40;46.40
6824;DHT22;58633;49.470;11.004;2022-07-29T08:37:02;25.70;46.40
6824;DHT22;58633;49.470;11.004;2022-07-29T08:39:27;25.60;46.10
6824;DHT22;58633;49.470;11.004;2022-07-29T08:41:53;25.80;46.10
6824;DHT22;58633;49.470;11.004;2022-07-29T08:44:20;25.90;46.00
6824;DHT22;58633;49.470;11.004;2022-07-29T08:46:48;25.90;45.80
6824;DHT22;58633;49.470;11.004;2022-07-29T08:49:14;26.00;45.80
6824;DHT22;58633;49.470;11.004;2022-07-29T08:51:40;25.90;45.70
6824;DHT22;58633;49.470;11.004;2022-07-29T08:54:08;26.10;45.70
6824;DHT22;58633;49.470;11.004;2022-07-29T08:56:34;25.90;45.40
6824;DHT22;58633;49.470;11.004;2022-07-29T08:59:04;25.90;45.30
6824;DHT22;58633;49.470;11.004;2022-07-29T09:01:32;26.30;45.40
6824;DHT22;58633;49.470;11.004;2022-07-29T09:03:59;26.50;45.30
6824;DHT22;58633;49.470;11.004;2022-07-29T09:06:30;26.50;45.00
6824;DHT22;58633;49.470;11.004;2022-07-29T09:08:59;26.80;45.00
6824;DHT22;58633;49.470;11.004;2022-07-29T09:11:25;26.60;45.20
6824;DHT22;58633;49.470;11.004;2022-07-29T09:13:50;26.90;45.00
6824;DHT22;58633;49.470;11.004;2022-07-29T09:16:16;27.30;44.30
6824;DHT22;58633;49.470;11.004;2022-07-29T09:18:45;27.20;44.00
6824;DHT22;58633;49.470;11.004;2022-07-29T09:21:16;27.10;44.10
6824;DHT22;58633;49.470;11.004;2022-07-29T09:24:09;27.20;44.00
6824;DHT22;58633;49.470;11.004;2022-07-29T09:26:38;27.60;43.00
6824;DHT22;58633;49.470;11.004;2022-07-29T09:29:15;27.50;43.20
6824;DHT22;58633;49.470;11.004;2022-07-29T09:31:44;27.70;42.50
6824;DHT22;58633;49.470;11.004;2022-07-29T09:34:10;27.90;42.40
6824;DHT22;58633;49.470;11.004;2022-07-29T09:36:41;28.00;42.40
6824;DHT22;58633;49.470;11.004;2022-07-29T09:39:07;27.90;42.00
6824;DHT22;58633;49.470;11.004;2022-07-29T09:41:49;28.00;41.80
6824;DHT22;58633;49.470;11.004;2022-07-29T09:44:16;28.20;41.50
6824;DHT22;58633;49.470;11.004;2022-07-29T09:46:56;28.10;41.40
6824;DHT22;58633;49.470;11.004;2022-07-29T09:49:23;28.20;41.60
6824;DHT22;58633;49.470;11.004;2022-07-29T09:51:59;28.20;41.40
6824;DHT22;58633;49.470;11.004;2022-07-29T09:54:26;28.30;41.30
6824;DHT22;58633;49.470;11.004;2022-07-29T09:56:53;28.30;41.40
6824;DHT22;58633;49.470;11.004;2022-07-29T09:59:19;28.40;41.50
6824;DHT22;58633;49.470;11.004;2022-07-29T10:01:48;28.50;41.40
6824;DHT22;58633;49.470;11.004;2022-07-29T10:04:14;28.60;41.10
6824;DHT22;58633;49.470;11.004;2022-07-29T10:06:57;28.70;41.60
6824;DHT22;58633;49.470;11.004;2022-07-29T10:12:13;28.80;40.70
6824;DHT22;58633;49.470;11.004;2022-07-29T10:14:40;28.50;40.60
6824;DHT22;58633;49.470;11.004;2022-07-29T10:17:07;28.60;40.70
6824;DHT22;58633;49.470;11.004;2022-07-29T10:19:34;28.70;40.60
6824;DHT22;58633;49.470;11.004;2022-07-29T10:22:02;28.80;41.00
6824;DHT22;58633;49.470;11.004;2022-07-29T10:24:29;28.70;40.40
6824;DHT22;58633;49.470;11.004;2022-07-29T10:26:56;28.90;40.30
6824;DHT22;58633;49.470;11.004;2022-07-29T10:29:23;29.00;40.30
6824;DHT22;58633;49.470;11.004;2022-07-29T10:35:03;29.00;40.30
6824;DHT22;58633;49.470;11.004;2022-07-29T10:43:21;29.40;39.50
6824;DHT22;58633;49.470;11.004;2022-07-29T10:45:48;29.60;39.40
6824;DHT22;58633;49.470;11.004;2022-07-29T10:48:15;29.70;39.20
6824;DHT22;58633;49.470;11.004;2022-07-29T10:50:59;29.70;39.50
6824;DHT22;58633;49.470;11.004;2022-07-29T10:53:49;29.70;38.40
6824;DHT22;58633;49.470;11.004;2022-07-29T10:56:29;29.70;38.60
6824;DHT22;58633;49.470;11.004;2022-07-29T11:01:49;29.90;38.60
6824;DHT22;58633;49.470;11.004;2022-07-29T11:09:31;30.40;38.50
6824;DHT22;58633;49.470;11.004;2022-07-29T11:12:00;30.60;38.20
6824;DHT22;58633;49.470;11.004;2022-07-29T11:17:23;30.90;37.70
6824;DHT22;58633;49.470;11.004;2022-07-29T11:19:48;31.00;37.30
6824;DHT22;58633;49.470;11.004;2022-07-29T11:22:32;31.20;37.00
6824;DHT22;58633;49.470;11.004;2022-07-29T11:25:17;31.20;37.00
6824;DHT22;58633;49.470;11.004;2022-07-29T11:27:44;31.00;36.40
6824;DHT22;58633;49.470;11.004;2022-07-29T11:30:10;30.90;36.20
6824;DHT22;58633;49.470;11.004;2022-07-29T11:32:39;30.80;36.40
6824;DHT22;58633;49.470;11.004;2022-07-29T11:35:22;30.70;36.50
6824;DHT22;58633;49.470;11.004;2022-07-29T11:38:24;30.90;36.90
6824;DHT22;58633;49.470;11.004;2022-07-29T11:43:52;30.90;37.10
6824;DHT22;58633;49.470;11.004;2022-07-29T11:49:25;31.10;36.90
6824;DHT22;58633;49.470;11.004;2022-07-29T11:51:52;31.50;36.80
6824;DHT22;58633;49.470;11.004;2022-07-29T11:54:24;31.60;36.70
6824;DHT22;58633;49.470;11.004;2022-07-29T11:56:52;32.00;36.80
6824;DHT22;58633;49.470;11.004;2022-07-29T11:59:19;32.10;36.70
6824;DHT22;58633;49.470;11.004;2022-07-29T12:01:55;32.20;37.30
6824;DHT22;58633;49.470;11.004;2022-07-29T12:04:20;32.70;36.50
6824;DHT22;58633;49.470;11.004;2022-07-29T12:06:54;32.80;36.20
6824;DHT22;58633;49.470;11.004;2022-07-29T12:09:21;33.10;35.80
6824;DHT22;58633;49.470;11.004;2022-07-29T12:11:47;33.10;35.10
6824;DHT22;58633;49.470;11.004;2022-07-29T12:16:51;33.40;35.40
6824;DHT22;58633;49.470;11.004;2022-07-29T12:19:16;33.40;35.00
6824;DHT22;58633;49.470;11.004;2022-07-29T12:21:55;33.40;34.40
6824;DHT22;58633;49.470;11.004;2022-07-29T12:24:23;33.60;34.20
6824;DHT22;58633;49.470;11.004;2022-07-29T12:26:54;34.00;34.10
6824;DHT22;58633;49.470;11.004;2022-07-29T12:29:21;34.00;34.40
6824;DHT22;58633;49.470;11.004;2022-07-29T12:31:51;35.40;32.90
6824;DHT22;58633;49.470;11.004;2022-07-29T12:34:20;35.40;32.90
6824;DHT22;58633;49.470;11.004;2022-07-29T12:36:46;35.80;32.50
6824;DHT22;58633;49.470;11.004;2022-07-29T12:39:12;35.70;32.10
6824;DHT22;58633;49.470;11.004;2022-07-29T12:41:38;35.60;32.40
6824;DHT22;58633;49.470;11.004;2022-07-29T12:44:04;35.10;32.40
6824;DHT22;58633;49.470;11.004;2022-07-29T12:46:30;34.70;32.50
6824;DHT22;58633;49.470;11.004;2022-07-29T12:48:55;34.30;32.90
6824;DHT22;58633;49.470;11.004;2022-07-29T12:51:36;34.10;33.00
6824;DHT22;58633;49.470;11.004;2022-07-29T12:54:07;34.10;33.40
6824;DHT22;58633;49.470;11.004;2022-07-29T12:56:34;33.90;33.00
6824;DHT22;58633;49.470;11.004;2022-07-29T12:59:00;33.90;33.40
6824;DHT22;58633;49.470;11.004;2022-07-29T13:01:36;33.80;32.50
6824;DHT22;58633;49.470;11.004;2022-07-29T13:04:02;33.80;32.90
6824;DHT22;58633;49.470;11.004;2022-07-29T13:06:44;34.00;32.80
6824;DHT22;58633;49.470;11.004;2022-07-29T13:09:17;34.40;32.30
6824;DHT22;58633;49.470;11.004;2022-07-29T13:11:45;34.30;32.30
6824;DHT22;58633;49.470;11.004;2022-07-29T13:14:13;34.50;31.60
6824;DHT22;58633;49.470;11.004;2022-07-29T13:17:02;34.90;31.80
6824;DHT22;58633;49.470;11.004;2022-07-29T13:19:34;35.30;31.60
6824;DHT22;58633;49.470;11.004;2022-07-29T13:22:00;35.20;31.70
6824;DHT22;58633;49.470;11.004;2022-07-29T13:24:25;35.10;31.40
6824;DHT22;58633;49.470;11.004;2022-07-29T13:26:51;35.10;31.00
6824;DHT22;58633;49.470;11.004;2022-07-29T13:29:17;35.10;31.30
6824;DHT22;58633;49.470;11.004;2022-07-29T13:31:42;35.80;30.10
6824;DHT22;58633;49.470;11.004;2022-07-29T13:34:08;35.60;29.90
6824;DHT22;58633;49.470;11.004;2022-07-29T13:36:33;35.60;30.10
6824;DHT22;58633;49.470;11.004;2022-07-29T13:38:59;35.30;29.90
6824;DHT22;58633;49.470;11.004;2022-07-29T13:41:26;34.60;29.90
6824;DHT22;58633;49.470;11.004;2022-07-29T13:43:52;34.50;30.30
6824;DHT22;58633;49.470;11.004;2022-07-29T13:46:18;34.40;30.30
6824;DHT22;58633;49.470;11.004;2022-07-29T13:48:43;34.00;31.00
6824;DHT22;58633;49.470;11.004;2022-07-29T13:51:09;34.00;31.60
6824;DHT22;58633;49.470;11.004;2022-07-29T13:53:34;33.00;33.10
6824;DHT22;58633;49.470;11.004;2022-07-29T13:56:00;32.60;33.60
6824;DHT22;58633;49.470;11.004;2022-07-29T13:58:25;32.30;34.30
6824;DHT22;58633;49.470;11.004;2022-07-29T14:00:51;32.10;35.00
6824;DHT22;58633;49.470;11.004;2022-07-29T14:03:17;31.80;35.30
6824;DHT22;58633;49.470;11.004;2022-07-29T14:05:42;31.90;36.00
6824;DHT22;58633;49.470;11.004;2022-07-29T14:08:08;31.80;36.00
6824;DHT22;58633;49.470;11.004;2022-07-29T14:10:33;31.70;36.60
6824;DHT22;58633;49.470;11.004;2022-07-29T14:12:59;31.30;36.90
6824;DHT22;58633;49.470;11.004;2022-07-29T14:15:25;31.10;37.00
6824;DHT22;58633;49.470;11.004;2022-07-29T14:17:50;30.80;37.20
6824;DHT22;58633;49.470;11.004;2022-07-29T14:20:16;30.60;37.30
6824;DHT22;58633;49.470;11.004;2022-07-29T14:22:41;30.50;37.10
6824;DHT22;58633;49.470;11.004;2022-07-29T14:25:08;30.20;36.80
6824;DHT22;58633;49.470;11.004;2022-07-29T14:27:33;30.20;36.90
6824;DHT22;58633;49.470;11.004;2022-07-29T14:30:00;30.00;37.40
6824;DHT22;58633;49.470;11.004;2022-07-29T14:32:25;29.70;37.70
6824;DHT22;58633;49.470;11.004;2022-07-29T14:34:51;29.90;37.90
6824;DHT22;58633;49.470;11.004;2022-07-29T14:37:17;29.60;38.00
6824;DHT22;58633;49.470;11.004;2022-07-29T14:39:42;29.70;38.60
6824;DHT22;58633;49.470;11.004;2022-07-29T14:42:08;29.50;39.50
6824;DHT22;58633;49.470;11.004;2022-07-29T14:44:34;29.40;41.00
6824;DHT22;58633;49.470;11.004;2022-07-29T14:46:59;29.10;41.10
6824;DHT22;58633;49.470;11.004;2022-07-29T14:49:26;28.90;42.00
6824;DHT22;58633;49.470;11.004;2022-07-29T14:51:52;28.90;42.60
6824;DHT22;58633;49.470;11.004;2022-07-29T14:54:17;29.00;43.60
6824;DHT22;58633;49.470;11.004;2022-07-29T14:56:43;28.90;44.00
6824;DHT22;58633;49.470;11.004;2022-07-29T14:59:08;28.80;44.60
6824;DHT22;58633;49.470;11.004;2022-07-29T15:01:34;28.90;45.10
6824;DHT22;58633;49.470;11.004;2022-07-29T15:03:59;28.90;46.00
6824;DHT22;58633;49.470;11.004;2022-07-29T15:06:25;28.80;45.90
6824;DHT22;58633;49.470;11.004;2022-07-29T15:08:51;28.80;46.10
6824;DHT22;58633;49.470;11.004;2022-07-29T15:11:16;28.70;46.50
6824;DHT22;58633;49.470;11.004;2022-07-29T15:13:42;28.60;46.20
6824;DHT22;58633;49.470;11.004;2022-07-29T15:16:07;28.50;46.70
6824;DHT22;58633;49.470;11.004;2022-07-29T15:18:34;28.30;46.30
6824;DHT22;58633;49.470;11.004;2022-07-29T15:21:00;28.10;47.10
6824;DHT22;58633;49.470;11.004;2022-07-29T15:23:27;27.80;47.70
6824;DHT22;58633;49.470;11.004;2022-07-29T15:25:52;27.60;48.00
6824;DHT22;58633;49.470;11.004;2022-07-29T15:28:18;27.60;48.70
6824;DHT22;58633;49.470;11.004;2022-07-29T15:30:43;27.40;49.70
6824;DHT22;58633;49.470;11.004;2022-07-29T15:33:09;27.10;50.40
6824;DHT22;58633;49.470;11.004;2022-07-29T15:35:36;27.20;50.80
6824;DHT22;58633;49.470;11.004;2022-07-29T15:38:01;27.10;51.60
6824;DHT22;58633;49.470;11.004;2022-07-29T15:40:28;27.20;52.60
6824;DHT22;58633;49.470;11.004;2022-07-29T15:42:54;27.00;52.40
6824;DHT22;58633;49.470;11.004;2022-07-29T15:45:19;26.90;53.00
6824;DHT22;58633;49.470;11.004;2022-07-29T15:47:45;26.90;53.60
6824;DHT22;58633;49.470;11.004;2022-07-29T15:50:10;26.80;53.90
6824;DHT22;58633;49.470;11.004;2022-07-29T15:52:40;26.80;54.40
6824;DHT22;58633;49.470;11.004;2022-07-29T15:55:06;26.70;54.30
6824;DHT22;58633;49.470;11.004;2022-07-29T15:57:32;26.60;54.30
6824;DHT22;58633;49.470;11.004;2022-07-29T15:59:57;26.40;54.70
6824;DHT22;58633;49.470;11.004;2022-07-29T16:02:23;26.20;55.40
6824;DHT22;58633;49.470;11.004;2022-07-29T16:04:48;26.30;56.30
6824;DHT22;58633;49.470;11.004;2022-07-29T16:07:14;26.10;56.60
6824;DHT22;58633;49.470;11.004;2022-07-29T16:09:40;26.00;57.30
6824;DHT22;58633;49.470;11.004;2022-07-29T16:12:06;25.80;57.90
6824;DHT22;58633;49.470;11.004;2022-07-29T16:14:33;25.90;58.80
6824;DHT22;58633;49.470;11.004;2022-07-29T16:16:58;26.00;58.70
6824;DHT22;58633;49.470;11.004;2022-07-29T16:19:28;25.60;58.60
6824;DHT22;58633;49.470;11.004;2022-07-29T16:21:53;25.70;59.70
6824;DHT22;58633;49.470;11.004;2022-07-29T16:26:44;25.50;59.90
6824;DHT22;58633;49.470;11.004;2022-07-29T16:29:10;25.30;60.10
6824;DHT22;58633;49.470;11.004;2022-07-29T16:31:36;25.20;60.10
6824;DHT22;58633;49.470;11.004;2022-07-29T16:34:01;25.20;60.40
6824;DHT22;58633;49.470;11.004;2022-07-29T16:36:27;25.00;60.50
6824;DHT22;58633;49.470;11.004;2022-07-29T16:41:18;24.90;61.00